<?xml version="1.0" encoding="UTF-8" standalone="no" ?><gpx xmlns="http://www.topografix.com/GPX/1/1" xmlns:gpxx="http://www.garmin.com/xmlschemas/GpxExtensions/v3" xmlns:wptx1="http://www.garmin.com/xmlschemas/WaypointExtension/v1" xmlns:gpxtpx="http://www.garmin.com/xmlschemas/TrackPointExtension/v1" creator="GuideVTT.com" version="1.1" xmlns:xsi="http://www.w3.org/2001/XMLSchema-instance" xsi:schemaLocation="http://www.topografix.com/GPX/1/1 http://www.topografix.com/GPX/1/1/gpx.xsd http://www.garmin.com/xmlschemas/GpxExtensions/v3 http://www8.garmin.com/xmlschemas/GpxExtensionsv3.xsd http://www.garmin.com/xmlschemas/WaypointExtension/v1 http://www8.garmin.com/xmlschemas/WaypointExtensionv1.xsd http://www.garmin.com/xmlschemas/TrackPointExtension/v1 http://www.garmin.com/xmlschemas/TrackPointExtensionv1.xsd">
<metadata><link href="http://www.garmin.com"><text>Garmin International</text></link><time>2013-06-22T15:13:50Z</time></metadata>
<trk><name>17sept08.gpx</name><extensions><gpxx:TrackExtension><gpxx:DisplayColor>Cyan</gpxx:DisplayColor></gpxx:TrackExtension></extensions><trkseg>
<trkpt lat="42.30513300" lon="-1.41711700"><ele>414</ele><time>2008-09-17T11:45:56Z</time></trkpt>
<trkpt lat="42.30383300" lon="-1.41865000"><ele>413</ele><time>2008-09-17T11:50:05Z</time></trkpt>
<trkpt lat="42.30371700" lon="-1.41941700"><ele>410</ele><time>2008-09-17T11:50:17Z</time></trkpt>
<trkpt lat="42.30316700" lon="-1.42126700"><ele>406</ele><time>2008-09-17T11:50:39Z</time></trkpt>
<trkpt lat="42.30278300" lon="-1.42228300"><ele>403</ele><time>2008-09-17T11:50:53Z</time></trkpt>
<trkpt lat="42.30145000" lon="-1.42778300"><ele>388</ele><time>2008-09-17T11:51:50Z</time></trkpt>
<trkpt lat="42.30135000" lon="-1.42881700"><ele>387</ele><time>2008-09-17T11:52:01Z</time></trkpt>
<trkpt lat="42.30018300" lon="-1.43378300"><ele>382</ele><time>2008-09-17T11:53:10Z</time></trkpt>
<trkpt lat="42.30001700" lon="-1.43418300"><ele>382</ele><time>2008-09-17T11:53:17Z</time></trkpt>
<trkpt lat="42.30015000" lon="-1.43468300"><ele>382</ele><time>2008-09-17T11:53:26Z</time></trkpt>
<trkpt lat="42.30071700" lon="-1.43421700"><ele>383</ele><time>2008-09-17T11:53:47Z</time></trkpt>
<trkpt lat="42.30095000" lon="-1.43431700"><ele>384</ele><time>2008-09-17T11:53:57Z</time></trkpt>
<trkpt lat="42.30098300" lon="-1.43463300"><ele>386</ele><time>2008-09-17T11:54:09Z</time></trkpt>
<trkpt lat="42.30136700" lon="-1.43523300"><ele>390</ele><time>2008-09-17T11:54:31Z</time></trkpt>
<trkpt lat="42.30200000" lon="-1.43568300"><ele>392</ele><time>2008-09-17T11:54:55Z</time></trkpt>
<trkpt lat="42.30241700" lon="-1.43585000"><ele>391</ele><time>2008-09-17T11:55:07Z</time></trkpt>
<trkpt lat="42.30268300" lon="-1.43633300"><ele>393</ele><time>2008-09-17T11:55:23Z</time></trkpt>
<trkpt lat="42.30271700" lon="-1.43668300"><ele>394</ele><time>2008-09-17T11:55:33Z</time></trkpt>
<trkpt lat="42.30261700" lon="-1.43721700"><ele>397</ele><time>2008-09-17T11:55:49Z</time></trkpt>
<trkpt lat="42.30266700" lon="-1.43773300"><ele>398</ele><time>2008-09-17T11:56:02Z</time></trkpt>
<trkpt lat="42.30280000" lon="-1.43810000"><ele>400</ele><time>2008-09-17T11:56:12Z</time></trkpt>
<trkpt lat="42.30301700" lon="-1.43846700"><ele>403</ele><time>2008-09-17T11:56:27Z</time></trkpt>
<trkpt lat="42.30316700" lon="-1.43868300"><ele>404</ele><time>2008-09-17T11:56:37Z</time></trkpt>
<trkpt lat="42.30408300" lon="-1.43875000"><ele>408</ele><time>2008-09-17T11:57:13Z</time></trkpt>
<trkpt lat="42.30433300" lon="-1.43875000"><ele>409</ele><time>2008-09-17T11:57:21Z</time></trkpt>
<trkpt lat="42.30456700" lon="-1.43846700"><ele>409</ele><time>2008-09-17T11:57:32Z</time></trkpt>
<trkpt lat="42.30505000" lon="-1.43856700"><ele>411</ele><time>2008-09-17T11:57:49Z</time></trkpt>
<trkpt lat="42.30551700" lon="-1.43920000"><ele>415</ele><time>2008-09-17T11:58:14Z</time></trkpt>
<trkpt lat="42.30553300" lon="-1.43988300"><ele>420</ele><time>2008-09-17T11:58:38Z</time></trkpt>
<trkpt lat="42.30570000" lon="-1.44035000"><ele>423</ele><time>2008-09-17T11:58:57Z</time></trkpt>
<trkpt lat="42.30570000" lon="-1.44061700"><ele>424</ele><time>2008-09-17T11:59:07Z</time></trkpt>
<trkpt lat="42.30570000" lon="-1.44095000"><ele>427</ele><time>2008-09-17T11:59:19Z</time></trkpt>
<trkpt lat="42.30585000" lon="-1.44121700"><ele>429</ele><time>2008-09-17T11:59:29Z</time></trkpt>
<trkpt lat="42.30608300" lon="-1.44130000"><ele>429</ele><time>2008-09-17T11:59:38Z</time></trkpt>
<trkpt lat="42.30645000" lon="-1.44170000"><ele>430</ele><time>2008-09-17T11:59:55Z</time></trkpt>
<trkpt lat="42.30673300" lon="-1.44180000"><ele>431</ele><time>2008-09-17T12:00:05Z</time></trkpt>
<trkpt lat="42.30706700" lon="-1.44180000"><ele>432</ele><time>2008-09-17T12:00:16Z</time></trkpt>
<trkpt lat="42.30741700" lon="-1.44198300"><ele>433</ele><time>2008-09-17T12:00:30Z</time></trkpt>
<trkpt lat="42.30798300" lon="-1.44245000"><ele>432</ele><time>2008-09-17T12:00:50Z</time></trkpt>
<trkpt lat="42.30836700" lon="-1.44250000"><ele>433</ele><time>2008-09-17T12:01:02Z</time></trkpt>
<trkpt lat="42.30916700" lon="-1.44353300"><ele>432</ele><time>2008-09-17T12:01:30Z</time></trkpt>
<trkpt lat="42.30963300" lon="-1.44441700"><ele>429</ele><time>2008-09-17T12:01:46Z</time></trkpt>
<trkpt lat="42.31050000" lon="-1.44495000"><ele>427</ele><time>2008-09-17T12:02:01Z</time></trkpt>
<trkpt lat="42.31135000" lon="-1.44531700"><ele>426</ele><time>2008-09-17T12:02:16Z</time></trkpt>
<trkpt lat="42.31126700" lon="-1.44606700"><ele>429</ele><time>2008-09-17T12:02:36Z</time></trkpt>
<trkpt lat="42.31113300" lon="-1.44645000"><ele>431</ele><time>2008-09-17T12:02:47Z</time></trkpt>
<trkpt lat="42.31098300" lon="-1.44720000"><ele>432</ele><time>2008-09-17T12:03:03Z</time></trkpt>
<trkpt lat="42.31093300" lon="-1.44770000"><ele>431</ele><time>2008-09-17T12:03:14Z</time></trkpt>
<trkpt lat="42.31095000" lon="-1.44836700"><ele>431</ele><time>2008-09-17T12:03:25Z</time></trkpt>
<trkpt lat="42.31078300" lon="-1.44990000"><ele>434</ele><time>2008-09-17T12:04:01Z</time></trkpt>
<trkpt lat="42.31051700" lon="-1.45098300"><ele>437</ele><time>2008-09-17T12:04:30Z</time></trkpt>
<trkpt lat="42.31043300" lon="-1.45155000"><ele>442</ele><time>2008-09-17T12:04:48Z</time></trkpt>
<trkpt lat="42.31031700" lon="-1.45196700"><ele>444</ele><time>2008-09-17T12:05:02Z</time></trkpt>
<trkpt lat="42.31013300" lon="-1.45221700"><ele>447</ele><time>2008-09-17T12:05:16Z</time></trkpt>
<trkpt lat="42.31003300" lon="-1.45256700"><ele>449</ele><time>2008-09-17T12:05:30Z</time></trkpt>
<trkpt lat="42.30981700" lon="-1.45281700"><ele>454</ele><time>2008-09-17T12:05:48Z</time></trkpt>
<trkpt lat="42.30946700" lon="-1.45305000"><ele>459</ele><time>2008-09-17T12:06:13Z</time></trkpt>
<trkpt lat="42.30916700" lon="-1.45300000"><ele>462</ele><time>2008-09-17T12:06:33Z</time></trkpt>
<trkpt lat="42.30886700" lon="-1.45281700"><ele>466</ele><time>2008-09-17T12:06:54Z</time></trkpt>
<trkpt lat="42.30863300" lon="-1.45268300"><ele>469</ele><time>2008-09-17T12:07:12Z</time></trkpt>
<trkpt lat="42.30845000" lon="-1.45263300"><ele>470</ele><time>2008-09-17T12:07:24Z</time></trkpt>
<trkpt lat="42.30753300" lon="-1.45245000"><ele>476</ele><time>2008-09-17T12:08:12Z</time></trkpt>
<trkpt lat="42.30735000" lon="-1.45268300"><ele>476</ele><time>2008-09-17T12:08:21Z</time></trkpt>
<trkpt lat="42.30751700" lon="-1.45341700"><ele>475</ele><time>2008-09-17T12:08:33Z</time></trkpt>
<trkpt lat="42.30715000" lon="-1.45433300"><ele>475</ele><time>2008-09-17T12:08:47Z</time></trkpt>
<trkpt lat="42.30648300" lon="-1.45541700"><ele>474</ele><time>2008-09-17T12:09:09Z</time></trkpt>
<trkpt lat="42.30651700" lon="-1.45586700"><ele>473</ele><time>2008-09-17T12:09:16Z</time></trkpt>
<trkpt lat="42.30666700" lon="-1.45621700"><ele>473</ele><time>2008-09-17T12:09:22Z</time></trkpt>
<trkpt lat="42.30658300" lon="-1.45678300"><ele>473</ele><time>2008-09-17T12:09:32Z</time></trkpt>
<trkpt lat="42.30656700" lon="-1.45725000"><ele>473</ele><time>2008-09-17T12:09:41Z</time></trkpt>
<trkpt lat="42.30680000" lon="-1.45765000"><ele>473</ele><time>2008-09-17T12:09:50Z</time></trkpt>
<trkpt lat="42.30735000" lon="-1.45803300"><ele>473</ele><time>2008-09-17T12:10:04Z</time></trkpt>
<trkpt lat="42.30793300" lon="-1.45876700"><ele>471</ele><time>2008-09-17T12:10:21Z</time></trkpt>
<trkpt lat="42.30803300" lon="-1.45928300"><ele>471</ele><time>2008-09-17T12:10:29Z</time></trkpt>
<trkpt lat="42.30826700" lon="-1.45995000"><ele>470</ele><time>2008-09-17T12:10:40Z</time></trkpt>
<trkpt lat="42.30828300" lon="-1.46046700"><ele>470</ele><time>2008-09-17T12:10:48Z</time></trkpt>
<trkpt lat="42.30843300" lon="-1.46090000"><ele>469</ele><time>2008-09-17T12:10:55Z</time></trkpt>
<trkpt lat="42.30881700" lon="-1.46141700"><ele>468</ele><time>2008-09-17T12:11:05Z</time></trkpt>
<trkpt lat="42.30908300" lon="-1.46208300"><ele>467</ele><time>2008-09-17T12:11:14Z</time></trkpt>
<trkpt lat="42.30920000" lon="-1.46285000"><ele>466</ele><time>2008-09-17T12:11:23Z</time></trkpt>
<trkpt lat="42.31065000" lon="-1.46456700"><ele>464</ele><time>2008-09-17T12:12:03Z</time></trkpt>
<trkpt lat="42.31093300" lon="-1.46516700"><ele>464</ele><time>2008-09-17T12:12:13Z</time></trkpt>
<trkpt lat="42.31138300" lon="-1.46586700"><ele>463</ele><time>2008-09-17T12:12:26Z</time></trkpt>
<trkpt lat="42.31160000" lon="-1.46640000"><ele>461</ele><time>2008-09-17T12:12:34Z</time></trkpt>
<trkpt lat="42.31205000" lon="-1.46698300"><ele>461</ele><time>2008-09-17T12:12:45Z</time></trkpt>
<trkpt lat="42.31236700" lon="-1.46728300"><ele>461</ele><time>2008-09-17T12:12:52Z</time></trkpt>
<trkpt lat="42.31270000" lon="-1.46780000"><ele>460</ele><time>2008-09-17T12:13:01Z</time></trkpt>
<trkpt lat="42.31325000" lon="-1.46835000"><ele>460</ele><time>2008-09-17T12:13:13Z</time></trkpt>
<trkpt lat="42.31381700" lon="-1.46895000"><ele>459</ele><time>2008-09-17T12:13:26Z</time></trkpt>
<trkpt lat="42.31460000" lon="-1.47080000"><ele>457</ele><time>2008-09-17T12:13:52Z</time></trkpt>
<trkpt lat="42.31703300" lon="-1.47291700"><ele>456</ele><time>2008-09-17T12:14:40Z</time></trkpt>
<trkpt lat="42.31755000" lon="-1.47360000"><ele>456</ele><time>2008-09-17T12:14:52Z</time></trkpt>
<trkpt lat="42.31793300" lon="-1.47411700"><ele>455</ele><time>2008-09-17T12:15:01Z</time></trkpt>
<trkpt lat="42.31820000" lon="-1.47463300"><ele>455</ele><time>2008-09-17T12:15:09Z</time></trkpt>
<trkpt lat="42.31851700" lon="-1.47508300"><ele>454</ele><time>2008-09-17T12:15:17Z</time></trkpt>
<trkpt lat="42.31873300" lon="-1.47586700"><ele>453</ele><time>2008-09-17T12:15:28Z</time></trkpt>
<trkpt lat="42.32040000" lon="-1.48083300"><ele>451</ele><time>2008-09-17T12:16:36Z</time></trkpt>
<trkpt lat="42.32118300" lon="-1.48165000"><ele>449</ele><time>2008-09-17T12:16:51Z</time></trkpt>
<trkpt lat="42.32156700" lon="-1.48210000"><ele>448</ele><time>2008-09-17T12:16:58Z</time></trkpt>
<trkpt lat="42.32438300" lon="-1.48388300"><ele>447</ele><time>2008-09-17T12:17:51Z</time></trkpt>
<trkpt lat="42.32545000" lon="-1.48483300"><ele>447</ele><time>2008-09-17T12:18:13Z</time></trkpt>
<trkpt lat="42.32665000" lon="-1.48555000"><ele>447</ele><time>2008-09-17T12:18:35Z</time></trkpt>
<trkpt lat="42.32708300" lon="-1.48608300"><ele>447</ele><time>2008-09-17T12:18:45Z</time></trkpt>
<trkpt lat="42.32826700" lon="-1.48696700"><ele>447</ele><time>2008-09-17T12:19:12Z</time></trkpt>
<trkpt lat="42.32955000" lon="-1.48841700"><ele>447</ele><time>2008-09-17T12:19:44Z</time></trkpt>
<trkpt lat="42.33001700" lon="-1.48885000"><ele>447</ele><time>2008-09-17T12:19:54Z</time></trkpt>
<trkpt lat="42.33191700" lon="-1.49168300"><ele>447</ele><time>2008-09-17T12:20:43Z</time></trkpt>
<trkpt lat="42.33270000" lon="-1.49351700"><ele>447</ele><time>2008-09-17T12:21:09Z</time></trkpt>
<trkpt lat="42.33356700" lon="-1.49501700"><ele>447</ele><time>2008-09-17T12:21:33Z</time></trkpt>
<trkpt lat="42.33380000" lon="-1.49565000"><ele>447</ele><time>2008-09-17T12:21:42Z</time></trkpt>
<trkpt lat="42.33508300" lon="-1.49808300"><ele>446</ele><time>2008-09-17T12:22:19Z</time></trkpt>
<trkpt lat="42.33531700" lon="-1.49881700"><ele>446</ele><time>2008-09-17T12:22:29Z</time></trkpt>
<trkpt lat="42.33561700" lon="-1.49961700"><ele>444</ele><time>2008-09-17T12:22:42Z</time></trkpt>
<trkpt lat="42.33161700" lon="-1.50106700"><ele>445</ele><time>2008-09-17T12:24:16Z</time></trkpt>
<trkpt lat="42.33031700" lon="-1.50171700"><ele>445</ele><time>2008-09-17T12:24:46Z</time></trkpt>
<trkpt lat="42.32966700" lon="-1.50235000"><ele>444</ele><time>2008-09-17T12:25:03Z</time></trkpt>
<trkpt lat="42.32855000" lon="-1.50293300"><ele>444</ele><time>2008-09-17T12:25:27Z</time></trkpt>
<trkpt lat="42.32781700" lon="-1.50335000"><ele>443</ele><time>2008-09-17T12:25:45Z</time></trkpt>
<trkpt lat="42.32641700" lon="-1.50398300"><ele>444</ele><time>2008-09-17T12:26:19Z</time></trkpt>
<trkpt lat="42.32576700" lon="-1.50466700"><ele>444</ele><time>2008-09-17T12:26:35Z</time></trkpt>
<trkpt lat="42.32458300" lon="-1.50573300"><ele>443</ele><time>2008-09-17T12:27:08Z</time></trkpt>
<trkpt lat="42.32286700" lon="-1.50776700"><ele>443</ele><time>2008-09-17T12:27:55Z</time></trkpt>
<trkpt lat="42.32170000" lon="-1.50891700"><ele>442</ele><time>2008-09-17T12:28:26Z</time></trkpt>
<trkpt lat="42.31985000" lon="-1.51076700"><ele>442</ele><time>2008-09-17T12:29:16Z</time></trkpt>
<trkpt lat="42.31405000" lon="-1.51671700"><ele>438</ele><time>2008-09-17T12:31:41Z</time></trkpt>
<trkpt lat="42.31353300" lon="-1.51745000"><ele>437</ele><time>2008-09-17T12:31:55Z</time></trkpt>
<trkpt lat="42.30725000" lon="-1.52290000"><ele>434</ele><time>2008-09-17T12:34:24Z</time></trkpt>
<trkpt lat="42.30635000" lon="-1.52331700"><ele>433</ele><time>2008-09-17T12:34:45Z</time></trkpt>
<trkpt lat="42.30170000" lon="-1.52651700"><ele>430</ele><time>2008-09-17T12:36:30Z</time></trkpt>
<trkpt lat="42.29981700" lon="-1.52716700"><ele>428</ele><time>2008-09-17T12:37:08Z</time></trkpt>
<trkpt lat="42.29751700" lon="-1.52878300"><ele>424</ele><time>2008-09-17T12:37:58Z</time></trkpt>
<trkpt lat="42.29601700" lon="-1.53063300"><ele>422</ele><time>2008-09-17T12:38:37Z</time></trkpt>
<trkpt lat="42.29506700" lon="-1.53138300"><ele>421</ele><time>2008-09-17T12:38:59Z</time></trkpt>
<trkpt lat="42.29461700" lon="-1.53166700"><ele>421</ele><time>2008-09-17T12:39:09Z</time></trkpt>
<trkpt lat="42.29418300" lon="-1.53188300"><ele>423</ele><time>2008-09-17T12:39:20Z</time></trkpt>
<trkpt lat="42.29133300" lon="-1.53375000"><ele>423</ele><time>2008-09-17T12:40:36Z</time></trkpt>
<trkpt lat="42.29070000" lon="-1.53435000"><ele>424</ele><time>2008-09-17T12:40:58Z</time></trkpt>
<trkpt lat="42.29025000" lon="-1.53483300"><ele>425</ele><time>2008-09-17T12:41:13Z</time></trkpt>
<trkpt lat="42.28960000" lon="-1.53533300"><ele>426</ele><time>2008-09-17T12:41:34Z</time></trkpt>
<trkpt lat="42.28930000" lon="-1.53561700"><ele>426</ele><time>2008-09-17T12:41:46Z</time></trkpt>
<trkpt lat="42.28758300" lon="-1.53376700"><ele>426</ele><time>2008-09-17T12:46:41Z</time></trkpt>
<trkpt lat="42.28596700" lon="-1.53148300"><ele>427</ele><time>2008-09-17T12:47:53Z</time></trkpt>
<trkpt lat="42.28468300" lon="-1.52943300"><ele>428</ele><time>2008-09-17T12:48:50Z</time></trkpt>
<trkpt lat="42.28423300" lon="-1.52848300"><ele>425</ele><time>2008-09-17T12:49:06Z</time></trkpt>
<trkpt lat="42.28083300" lon="-1.52248300"><ele>431</ele><time>2008-09-17T12:51:46Z</time></trkpt>
<trkpt lat="42.28018300" lon="-1.52071700"><ele>431</ele><time>2008-09-17T12:52:32Z</time></trkpt>
<trkpt lat="42.27980000" lon="-1.52006700"><ele>429</ele><time>2008-09-17T12:52:49Z</time></trkpt>
<trkpt lat="42.27951700" lon="-1.51946700"><ele>428</ele><time>2008-09-17T12:53:03Z</time></trkpt>
<trkpt lat="42.27928300" lon="-1.51935000"><ele>427</ele><time>2008-09-17T12:53:11Z</time></trkpt>
<trkpt lat="42.27896700" lon="-1.51880000"><ele>428</ele><time>2008-09-17T12:53:26Z</time></trkpt>
<trkpt lat="42.27896700" lon="-1.51836700"><ele>428</ele><time>2008-09-17T12:53:35Z</time></trkpt>
<trkpt lat="42.27815000" lon="-1.51656700"><ele>427</ele><time>2008-09-17T12:54:21Z</time></trkpt>
<trkpt lat="42.27708300" lon="-1.51468300"><ele>427</ele><time>2008-09-17T12:55:09Z</time></trkpt>
<trkpt lat="42.27643300" lon="-1.51365000"><ele>428</ele><time>2008-09-17T12:55:39Z</time></trkpt>
<trkpt lat="42.27628300" lon="-1.51321700"><ele>428</ele><time>2008-09-17T12:55:50Z</time></trkpt>
<trkpt lat="42.27590000" lon="-1.51181700"><ele>428</ele><time>2008-09-17T12:56:20Z</time></trkpt>
<trkpt lat="42.27570000" lon="-1.51135000"><ele>428</ele><time>2008-09-17T12:56:32Z</time></trkpt>
<trkpt lat="42.27521700" lon="-1.50970000"><ele>429</ele><time>2008-09-17T12:57:13Z</time></trkpt>
<trkpt lat="42.27488300" lon="-1.50875000"><ele>431</ele><time>2008-09-17T12:57:38Z</time></trkpt>
<trkpt lat="42.27436700" lon="-1.50723300"><ele>432</ele><time>2008-09-17T12:58:19Z</time></trkpt>
<trkpt lat="42.27418300" lon="-1.50696700"><ele>433</ele><time>2008-09-17T12:58:32Z</time></trkpt>
<trkpt lat="42.27406700" lon="-1.50666700"><ele>432</ele><time>2008-09-17T12:59:36Z</time></trkpt>
<trkpt lat="42.27401700" lon="-1.50638300"><ele>431</ele><time>2008-09-17T13:01:25Z</time></trkpt>
<trkpt lat="42.27405000" lon="-1.50666700"><ele>431</ele><time>2008-09-17T13:02:07Z</time></trkpt>
<trkpt lat="42.27418300" lon="-1.50686700"><ele>431</ele><time>2008-09-17T13:02:13Z</time></trkpt>
<trkpt lat="42.27423300" lon="-1.50636700"><ele>425</ele><time>2008-09-17T13:03:05Z</time></trkpt>
<trkpt lat="42.27433300" lon="-1.50600000"><ele>420</ele><time>2008-09-17T13:03:13Z</time></trkpt>
<trkpt lat="42.27436700" lon="-1.50575000"><ele>416</ele><time>2008-09-17T13:03:22Z</time></trkpt>
<trkpt lat="42.27433300" lon="-1.50515000"><ele>411</ele><time>2008-09-17T13:03:39Z</time></trkpt>
<trkpt lat="42.27440000" lon="-1.50501700"><ele>412</ele><time>2008-09-17T13:04:12Z</time></trkpt>
<trkpt lat="42.27448300" lon="-1.50523300"><ele>409</ele><time>2008-09-17T13:04:43Z</time></trkpt>
<trkpt lat="42.27461700" lon="-1.50521700"><ele>406</ele><time>2008-09-17T13:05:42Z</time></trkpt>
<trkpt lat="42.27481700" lon="-1.50515000"><ele>404</ele><time>2008-09-17T13:06:02Z</time></trkpt>
<trkpt lat="42.27490000" lon="-1.50483300"><ele>401</ele><time>2008-09-17T13:06:09Z</time></trkpt>
<trkpt lat="42.27501700" lon="-1.50468300"><ele>401</ele><time>2008-09-17T13:06:19Z</time></trkpt>
<trkpt lat="42.27511700" lon="-1.50388300"><ele>398</ele><time>2008-09-17T13:08:01Z</time></trkpt>
<trkpt lat="42.27496700" lon="-1.50346700"><ele>398</ele><time>2008-09-17T13:08:10Z</time></trkpt>
<trkpt lat="42.27506700" lon="-1.50293300"><ele>394</ele><time>2008-09-17T13:08:19Z</time></trkpt>
<trkpt lat="42.27498300" lon="-1.50225000"><ele>391</ele><time>2008-09-17T13:08:29Z</time></trkpt>
<trkpt lat="42.27461700" lon="-1.50131700"><ele>388</ele><time>2008-09-17T13:08:45Z</time></trkpt>
<trkpt lat="42.27413300" lon="-1.50041700"><ele>386</ele><time>2008-09-17T13:09:09Z</time></trkpt>
<trkpt lat="42.27391700" lon="-1.49996700"><ele>385</ele><time>2008-09-17T13:09:23Z</time></trkpt>
<trkpt lat="42.27353300" lon="-1.49931700"><ele>381</ele><time>2008-09-17T13:09:38Z</time></trkpt>
<trkpt lat="42.27330000" lon="-1.49885000"><ele>377</ele><time>2008-09-17T13:09:49Z</time></trkpt>
<trkpt lat="42.27310000" lon="-1.49851700"><ele>374</ele><time>2008-09-17T13:09:55Z</time></trkpt>
<trkpt lat="42.27360000" lon="-1.49776700"><ele>368</ele><time>2008-09-17T13:10:07Z</time></trkpt>
<trkpt lat="42.27361700" lon="-1.49730000"><ele>367</ele><time>2008-09-17T13:10:13Z</time></trkpt>
<trkpt lat="42.27313300" lon="-1.49613300"><ele>364</ele><time>2008-09-17T13:10:36Z</time></trkpt>
<trkpt lat="42.27310000" lon="-1.49531700"><ele>361</ele><time>2008-09-17T13:10:56Z</time></trkpt>
<trkpt lat="42.27331700" lon="-1.49481700"><ele>358</ele><time>2008-09-17T13:11:05Z</time></trkpt>
<trkpt lat="42.27353300" lon="-1.49458300"><ele>356</ele><time>2008-09-17T13:11:12Z</time></trkpt>
<trkpt lat="42.27373300" lon="-1.49415000"><ele>352</ele><time>2008-09-17T13:11:20Z</time></trkpt>
<trkpt lat="42.27378300" lon="-1.49306700"><ele>348</ele><time>2008-09-17T13:11:35Z</time></trkpt>
<trkpt lat="42.27361700" lon="-1.49136700"><ele>345</ele><time>2008-09-17T13:12:04Z</time></trkpt>
<trkpt lat="42.27373300" lon="-1.49071700"><ele>344</ele><time>2008-09-17T13:12:16Z</time></trkpt>
<trkpt lat="42.27388300" lon="-1.48996700"><ele>343</ele><time>2008-09-17T13:12:31Z</time></trkpt>
<trkpt lat="42.27381700" lon="-1.48960000"><ele>343</ele><time>2008-09-17T13:12:42Z</time></trkpt>
<trkpt lat="42.27366700" lon="-1.48925000"><ele>342</ele><time>2008-09-17T13:12:59Z</time></trkpt>
<trkpt lat="42.27381700" lon="-1.48963300"><ele>343</ele><time>2008-09-17T13:13:13Z</time></trkpt>
<trkpt lat="42.27415000" lon="-1.48961700"><ele>340</ele><time>2008-09-17T13:13:21Z</time></trkpt>
<trkpt lat="42.27448300" lon="-1.48930000"><ele>339</ele><time>2008-09-17T13:13:28Z</time></trkpt>
<trkpt lat="42.27485000" lon="-1.48905000"><ele>336</ele><time>2008-09-17T13:13:37Z</time></trkpt>
<trkpt lat="42.27516700" lon="-1.48896700"><ele>337</ele><time>2008-09-17T13:13:42Z</time></trkpt>
<trkpt lat="42.27545000" lon="-1.48925000"><ele>342</ele><time>2008-09-17T13:13:58Z</time></trkpt>
<trkpt lat="42.27618300" lon="-1.48913300"><ele>343</ele><time>2008-09-17T13:14:26Z</time></trkpt>
<trkpt lat="42.27678300" lon="-1.48936700"><ele>344</ele><time>2008-09-17T13:14:41Z</time></trkpt>
<trkpt lat="42.27706700" lon="-1.48936700"><ele>344</ele><time>2008-09-17T13:14:50Z</time></trkpt>
<trkpt lat="42.27725000" lon="-1.48940000"><ele>344</ele><time>2008-09-17T13:15:00Z</time></trkpt>
<trkpt lat="42.27740000" lon="-1.48886700"><ele>343</ele><time>2008-09-17T13:15:16Z</time></trkpt>
<trkpt lat="42.27750000" lon="-1.48855000"><ele>342</ele><time>2008-09-17T13:15:32Z</time></trkpt>
<trkpt lat="42.27718300" lon="-1.48803300"><ele>342</ele><time>2008-09-17T13:15:56Z</time></trkpt>
<trkpt lat="42.27710000" lon="-1.48778300"><ele>341</ele><time>2008-09-17T13:16:46Z</time></trkpt>
<trkpt lat="42.27698300" lon="-1.48748300"><ele>341</ele><time>2008-09-17T13:17:00Z</time></trkpt>
<trkpt lat="42.27678300" lon="-1.48706700"><ele>341</ele><time>2008-09-17T13:17:16Z</time></trkpt>
<trkpt lat="42.27670000" lon="-1.48655000"><ele>341</ele><time>2008-09-17T13:17:31Z</time></trkpt>
<trkpt lat="42.27661700" lon="-1.48623300"><ele>340</ele><time>2008-09-17T13:17:42Z</time></trkpt>
<trkpt lat="42.27648300" lon="-1.48600000"><ele>338</ele><time>2008-09-17T13:17:51Z</time></trkpt>
<trkpt lat="42.27640000" lon="-1.48581700"><ele>339</ele><time>2008-09-17T13:18:12Z</time></trkpt>
<trkpt lat="42.27645000" lon="-1.48561700"><ele>340</ele><time>2008-09-17T13:18:29Z</time></trkpt>
<trkpt lat="42.27641700" lon="-1.48525000"><ele>341</ele><time>2008-09-17T13:18:43Z</time></trkpt>
<trkpt lat="42.27663300" lon="-1.48490000"><ele>343</ele><time>2008-09-17T13:19:01Z</time></trkpt>
<trkpt lat="42.27670000" lon="-1.48461700"><ele>344</ele><time>2008-09-17T13:19:13Z</time></trkpt>
<trkpt lat="42.27683300" lon="-1.48433300"><ele>341</ele><time>2008-09-17T13:21:33Z</time></trkpt>
<trkpt lat="42.27703300" lon="-1.48425000"><ele>340</ele><time>2008-09-17T13:24:14Z</time></trkpt>
<trkpt lat="42.27716700" lon="-1.48398300"><ele>341</ele><time>2008-09-17T13:24:33Z</time></trkpt>
<trkpt lat="42.27761700" lon="-1.48271700"><ele>342</ele><time>2008-09-17T13:25:19Z</time></trkpt>
<trkpt lat="42.27745000" lon="-1.48230000"><ele>341</ele><time>2008-09-17T13:25:35Z</time></trkpt>
<trkpt lat="42.27721700" lon="-1.48213300"><ele>340</ele><time>2008-09-17T13:25:44Z</time></trkpt>
<trkpt lat="42.27695000" lon="-1.48218300"><ele>340</ele><time>2008-09-17T13:25:54Z</time></trkpt>
<trkpt lat="42.27678300" lon="-1.48186700"><ele>340</ele><time>2008-09-17T13:26:04Z</time></trkpt>
<trkpt lat="42.27641700" lon="-1.48188300"><ele>339</ele><time>2008-09-17T13:26:21Z</time></trkpt>
<trkpt lat="42.27613300" lon="-1.48170000"><ele>339</ele><time>2008-09-17T13:26:32Z</time></trkpt>
<trkpt lat="42.27585000" lon="-1.48138300"><ele>339</ele><time>2008-09-17T13:26:47Z</time></trkpt>
<trkpt lat="42.27563300" lon="-1.48128300"><ele>339</ele><time>2008-09-17T13:26:55Z</time></trkpt>
<trkpt lat="42.27525000" lon="-1.48141700"><ele>339</ele><time>2008-09-17T13:27:10Z</time></trkpt>
<trkpt lat="42.27500000" lon="-1.48135000"><ele>339</ele><time>2008-09-17T13:27:18Z</time></trkpt>
<trkpt lat="42.27461700" lon="-1.48081700"><ele>338</ele><time>2008-09-17T13:27:39Z</time></trkpt>
<trkpt lat="42.27468300" lon="-1.48060000"><ele>338</ele><time>2008-09-17T13:27:53Z</time></trkpt>
<trkpt lat="42.27441700" lon="-1.48016700"><ele>337</ele><time>2008-09-17T13:28:11Z</time></trkpt>
<trkpt lat="42.27413300" lon="-1.47990000"><ele>337</ele><time>2008-09-17T13:28:25Z</time></trkpt>
<trkpt lat="42.27383300" lon="-1.47960000"><ele>337</ele><time>2008-09-17T13:28:37Z</time></trkpt>
<trkpt lat="42.27360000" lon="-1.47928300"><ele>336</ele><time>2008-09-17T13:28:47Z</time></trkpt>
<trkpt lat="42.27321700" lon="-1.47863300"><ele>335</ele><time>2008-09-17T13:29:07Z</time></trkpt>
<trkpt lat="42.27301700" lon="-1.47823300"><ele>335</ele><time>2008-09-17T13:29:18Z</time></trkpt>
<trkpt lat="42.27275000" lon="-1.47798300"><ele>334</ele><time>2008-09-17T13:29:28Z</time></trkpt>
<trkpt lat="42.27248300" lon="-1.47793300"><ele>334</ele><time>2008-09-17T13:29:39Z</time></trkpt>
<trkpt lat="42.27233300" lon="-1.47808300"><ele>334</ele><time>2008-09-17T13:29:49Z</time></trkpt>
<trkpt lat="42.27201700" lon="-1.47763300"><ele>332</ele><time>2008-09-17T13:31:30Z</time></trkpt>
<trkpt lat="42.27158300" lon="-1.47701700"><ele>326</ele><time>2008-09-17T13:31:40Z</time></trkpt>
<trkpt lat="42.27176700" lon="-1.47628300"><ele>333</ele><time>2008-09-17T13:31:59Z</time></trkpt>
<trkpt lat="42.27203300" lon="-1.47593300"><ele>335</ele><time>2008-09-17T13:32:14Z</time></trkpt>
<trkpt lat="42.27235000" lon="-1.47561700"><ele>336</ele><time>2008-09-17T13:32:28Z</time></trkpt>
<trkpt lat="42.27405000" lon="-1.47288300"><ele>340</ele><time>2008-09-17T13:33:40Z</time></trkpt>
<trkpt lat="42.27420000" lon="-1.47243300"><ele>340</ele><time>2008-09-17T13:33:50Z</time></trkpt>
<trkpt lat="42.27440000" lon="-1.47141700"><ele>337</ele><time>2008-09-17T13:34:08Z</time></trkpt>
<trkpt lat="42.27500000" lon="-1.46845000"><ele>342</ele><time>2008-09-17T13:35:18Z</time></trkpt>
<trkpt lat="42.27511700" lon="-1.46796700"><ele>342</ele><time>2008-09-17T13:35:36Z</time></trkpt>
<trkpt lat="42.27526700" lon="-1.46758300"><ele>342</ele><time>2008-09-17T13:35:52Z</time></trkpt>
<trkpt lat="42.27536700" lon="-1.46731700"><ele>343</ele><time>2008-09-17T13:36:02Z</time></trkpt>
<trkpt lat="42.27546700" lon="-1.46688300"><ele>343</ele><time>2008-09-17T13:36:45Z</time></trkpt>
<trkpt lat="42.27620000" lon="-1.46605000"><ele>347</ele><time>2008-09-17T13:37:18Z</time></trkpt>
<trkpt lat="42.27648300" lon="-1.46583300"><ele>348</ele><time>2008-09-17T13:37:31Z</time></trkpt>
<trkpt lat="42.27658300" lon="-1.46546700"><ele>349</ele><time>2008-09-17T13:37:46Z</time></trkpt>
<trkpt lat="42.27655000" lon="-1.46486700"><ele>349</ele><time>2008-09-17T13:38:00Z</time></trkpt>
<trkpt lat="42.27646700" lon="-1.46390000"><ele>351</ele><time>2008-09-17T13:38:26Z</time></trkpt>
<trkpt lat="42.27635000" lon="-1.46341700"><ele>351</ele><time>2008-09-17T13:38:37Z</time></trkpt>
<trkpt lat="42.27603300" lon="-1.46261700"><ele>350</ele><time>2008-09-17T13:38:56Z</time></trkpt>
<trkpt lat="42.27565000" lon="-1.46121700"><ele>348</ele><time>2008-09-17T13:39:23Z</time></trkpt>
<trkpt lat="42.27588300" lon="-1.46088300"><ele>350</ele><time>2008-09-17T13:39:42Z</time></trkpt>
<trkpt lat="42.27605000" lon="-1.46051700"><ele>352</ele><time>2008-09-17T13:39:56Z</time></trkpt>
<trkpt lat="42.27620000" lon="-1.46023300"><ele>353</ele><time>2008-09-17T13:40:09Z</time></trkpt>
<trkpt lat="42.27635000" lon="-1.45986700"><ele>357</ele><time>2008-09-17T13:40:32Z</time></trkpt>
<trkpt lat="42.27653300" lon="-1.45965000"><ele>359</ele><time>2008-09-17T13:40:46Z</time></trkpt>
<trkpt lat="42.27685000" lon="-1.45940000"><ele>361</ele><time>2008-09-17T13:41:06Z</time></trkpt>
<trkpt lat="42.27730000" lon="-1.45915000"><ele>364</ele><time>2008-09-17T13:41:34Z</time></trkpt>
<trkpt lat="42.27756700" lon="-1.45901700"><ele>365</ele><time>2008-09-17T13:41:47Z</time></trkpt>
<trkpt lat="42.27790000" lon="-1.45893300"><ele>368</ele><time>2008-09-17T13:42:05Z</time></trkpt>
<trkpt lat="42.27815000" lon="-1.45865000"><ele>369</ele><time>2008-09-17T13:42:21Z</time></trkpt>
<trkpt lat="42.27830000" lon="-1.45848300"><ele>370</ele><time>2008-09-17T13:42:31Z</time></trkpt>
<trkpt lat="42.27836700" lon="-1.45823300"><ele>372</ele><time>2008-09-17T13:42:42Z</time></trkpt>
<trkpt lat="42.27835000" lon="-1.45781700"><ele>374</ele><time>2008-09-17T13:43:00Z</time></trkpt>
<trkpt lat="42.27845000" lon="-1.45758300"><ele>374</ele><time>2008-09-17T13:43:15Z</time></trkpt>
<trkpt lat="42.27861700" lon="-1.45708300"><ele>375</ele><time>2008-09-17T13:43:38Z</time></trkpt>
<trkpt lat="42.27880000" lon="-1.45678300"><ele>376</ele><time>2008-09-17T13:43:48Z</time></trkpt>
<trkpt lat="42.27898300" lon="-1.45656700"><ele>376</ele><time>2008-09-17T13:43:58Z</time></trkpt>
<trkpt lat="42.27928300" lon="-1.45660000"><ele>377</ele><time>2008-09-17T13:44:09Z</time></trkpt>
<trkpt lat="42.27936700" lon="-1.45633300"><ele>376</ele><time>2008-09-17T13:44:17Z</time></trkpt>
<trkpt lat="42.27955000" lon="-1.45591700"><ele>375</ele><time>2008-09-17T13:44:38Z</time></trkpt>
<trkpt lat="42.27941700" lon="-1.45560000"><ele>375</ele><time>2008-09-17T13:44:48Z</time></trkpt>
<trkpt lat="42.27946700" lon="-1.45481700"><ele>376</ele><time>2008-09-17T13:45:14Z</time></trkpt>
<trkpt lat="42.27968300" lon="-1.45436700"><ele>377</ele><time>2008-09-17T13:45:30Z</time></trkpt>
<trkpt lat="42.28088300" lon="-1.45311700"><ele>381</ele><time>2008-09-17T13:46:26Z</time></trkpt>
<trkpt lat="42.28086700" lon="-1.45261700"><ele>383</ele><time>2008-09-17T13:46:46Z</time></trkpt>
<trkpt lat="42.28081700" lon="-1.45243300"><ele>384</ele><time>2008-09-17T13:46:56Z</time></trkpt>
<trkpt lat="42.28081700" lon="-1.45206700"><ele>384</ele><time>2008-09-17T13:47:10Z</time></trkpt>
<trkpt lat="42.28071700" lon="-1.45180000"><ele>382</ele><time>2008-09-17T13:48:54Z</time></trkpt>
<trkpt lat="42.28068300" lon="-1.45141700"><ele>378</ele><time>2008-09-17T13:49:01Z</time></trkpt>
<trkpt lat="42.28043300" lon="-1.45080000"><ele>372</ele><time>2008-09-17T13:49:12Z</time></trkpt>
<trkpt lat="42.28048300" lon="-1.45055000"><ele>373</ele><time>2008-09-17T13:49:19Z</time></trkpt>
<trkpt lat="42.28068300" lon="-1.45046700"><ele>373</ele><time>2008-09-17T13:49:31Z</time></trkpt>
<trkpt lat="42.28086700" lon="-1.45033300"><ele>374</ele><time>2008-09-17T13:49:56Z</time></trkpt>
<trkpt lat="42.28106700" lon="-1.44990000"><ele>375</ele><time>2008-09-17T13:50:08Z</time></trkpt>
<trkpt lat="42.28123300" lon="-1.44978300"><ele>375</ele><time>2008-09-17T13:50:18Z</time></trkpt>
<trkpt lat="42.28138300" lon="-1.45016700"><ele>378</ele><time>2008-09-17T13:50:32Z</time></trkpt>
<trkpt lat="42.28153300" lon="-1.45031700"><ele>380</ele><time>2008-09-17T13:50:44Z</time></trkpt>
<trkpt lat="42.28186700" lon="-1.45035000"><ele>379</ele><time>2008-09-17T13:51:04Z</time></trkpt>
<trkpt lat="42.28213300" lon="-1.45025000"><ele>378</ele><time>2008-09-17T13:51:38Z</time></trkpt>
<trkpt lat="42.28231700" lon="-1.45006700"><ele>380</ele><time>2008-09-17T13:51:50Z</time></trkpt>
<trkpt lat="42.28248300" lon="-1.45018300"><ele>379</ele><time>2008-09-17T13:52:02Z</time></trkpt>
<trkpt lat="42.28268300" lon="-1.45030000"><ele>381</ele><time>2008-09-17T13:52:14Z</time></trkpt>
<trkpt lat="42.28275000" lon="-1.45051700"><ele>384</ele><time>2008-09-17T13:52:33Z</time></trkpt>
<trkpt lat="42.28255000" lon="-1.45036700"><ele>384</ele><time>2008-09-17T13:52:51Z</time></trkpt>
<trkpt lat="42.28240000" lon="-1.45035000"><ele>384</ele><time>2008-09-17T13:54:18Z</time></trkpt>
<trkpt lat="42.28226700" lon="-1.45063300"><ele>383</ele><time>2008-09-17T13:54:26Z</time></trkpt>
<trkpt lat="42.28195000" lon="-1.45070000"><ele>382</ele><time>2008-09-17T13:54:36Z</time></trkpt>
<trkpt lat="42.28220000" lon="-1.45015000"><ele>380</ele><time>2008-09-17T13:54:55Z</time></trkpt>
<trkpt lat="42.28218300" lon="-1.44985000"><ele>377</ele><time>2008-09-17T13:55:18Z</time></trkpt>
<trkpt lat="42.28233300" lon="-1.44958300"><ele>379</ele><time>2008-09-17T13:55:28Z</time></trkpt>
<trkpt lat="42.28271700" lon="-1.44920000"><ele>377</ele><time>2008-09-17T13:55:45Z</time></trkpt>
<trkpt lat="42.28290000" lon="-1.44893300"><ele>377</ele><time>2008-09-17T13:55:54Z</time></trkpt>
<trkpt lat="42.28390000" lon="-1.44815000"><ele>376</ele><time>2008-09-17T13:56:28Z</time></trkpt>
<trkpt lat="42.28448300" lon="-1.44763300"><ele>377</ele><time>2008-09-17T13:56:47Z</time></trkpt>
<trkpt lat="42.28483300" lon="-1.44736700"><ele>377</ele><time>2008-09-17T13:56:58Z</time></trkpt>
<trkpt lat="42.28545000" lon="-1.44683300"><ele>377</ele><time>2008-09-17T13:57:19Z</time></trkpt>
<trkpt lat="42.28623300" lon="-1.44643300"><ele>378</ele><time>2008-09-17T13:57:41Z</time></trkpt>
<trkpt lat="42.28668300" lon="-1.44625000"><ele>377</ele><time>2008-09-17T13:57:54Z</time></trkpt>
<trkpt lat="42.28790000" lon="-1.44576700"><ele>378</ele><time>2008-09-17T13:58:26Z</time></trkpt>
<trkpt lat="42.28878300" lon="-1.44513300"><ele>378</ele><time>2008-09-17T13:58:50Z</time></trkpt>
<trkpt lat="42.28915000" lon="-1.44501700"><ele>380</ele><time>2008-09-17T13:59:00Z</time></trkpt>
<trkpt lat="42.29103300" lon="-1.44478300"><ele>379</ele><time>2008-09-17T13:59:43Z</time></trkpt>
<trkpt lat="42.29350000" lon="-1.44320000"><ele>380</ele><time>2008-09-17T14:00:42Z</time></trkpt>
<trkpt lat="42.29571700" lon="-1.44133300"><ele>379</ele><time>2008-09-17T14:01:37Z</time></trkpt>
<trkpt lat="42.29678300" lon="-1.44058300"><ele>379</ele><time>2008-09-17T14:02:01Z</time></trkpt>
<trkpt lat="42.29713300" lon="-1.44013300"><ele>379</ele><time>2008-09-17T14:02:11Z</time></trkpt>
<trkpt lat="42.29771700" lon="-1.43955000"><ele>379</ele><time>2008-09-17T14:02:26Z</time></trkpt>
<trkpt lat="42.29940000" lon="-1.43736700"><ele>379</ele><time>2008-09-17T14:03:17Z</time></trkpt>
<trkpt lat="42.30015000" lon="-1.43516700"><ele>379</ele><time>2008-09-17T14:03:56Z</time></trkpt>
<trkpt lat="42.30016700" lon="-1.43480000"><ele>379</ele><time>2008-09-17T14:04:06Z</time></trkpt>
<trkpt lat="42.30003300" lon="-1.43440000"><ele>379</ele><time>2008-09-17T14:04:17Z</time></trkpt>
<trkpt lat="42.30010000" lon="-1.43396700"><ele>379</ele><time>2008-09-17T14:04:27Z</time></trkpt>
<trkpt lat="42.30030000" lon="-1.43343300"><ele>380</ele><time>2008-09-17T14:04:39Z</time></trkpt>
<trkpt lat="42.30045000" lon="-1.43260000"><ele>381</ele><time>2008-09-17T14:04:55Z</time></trkpt>
<trkpt lat="42.30143300" lon="-1.42838300"><ele>385</ele><time>2008-09-17T14:06:28Z</time></trkpt>
<trkpt lat="42.30148300" lon="-1.42758300"><ele>386</ele><time>2008-09-17T14:06:46Z</time></trkpt>
<trkpt lat="42.30175000" lon="-1.42628300"><ele>387</ele><time>2008-09-17T14:07:17Z</time></trkpt>
<trkpt lat="42.30203300" lon="-1.42516700"><ele>390</ele><time>2008-09-17T14:07:46Z</time></trkpt>
<trkpt lat="42.30233300" lon="-1.42395000"><ele>392</ele><time>2008-09-17T14:08:21Z</time></trkpt>
<trkpt lat="42.30263300" lon="-1.42273300"><ele>399</ele><time>2008-09-17T14:09:05Z</time></trkpt>
<trkpt lat="42.30355000" lon="-1.42018300"><ele>406</ele><time>2008-09-17T14:10:32Z</time></trkpt>
<trkpt lat="42.30366700" lon="-1.41968300"><ele>408</ele><time>2008-09-17T14:10:48Z</time></trkpt>
<trkpt lat="42.30375000" lon="-1.41918300"><ele>411</ele><time>2008-09-17T14:11:06Z</time></trkpt>
<trkpt lat="42.30380000" lon="-1.41878300"><ele>412</ele><time>2008-09-17T14:11:18Z</time></trkpt>
<trkpt lat="42.30436700" lon="-1.41800000"><ele>413</ele><time>2008-09-17T14:11:49Z</time></trkpt>
<trkpt lat="42.30446700" lon="-1.41771700"><ele>413</ele><time>2008-09-17T14:11:59Z</time></trkpt>
<trkpt lat="42.30468300" lon="-1.41751700"><ele>412</ele><time>2008-09-17T14:18:10Z</time></trkpt>
<trkpt lat="42.30495000" lon="-1.41720000"><ele>411</ele><time>2008-09-17T14:18:25Z</time></trkpt>
</trkseg></trk></gpx>